SAT weather

San Antonio International Airport
San Antonio, Texas, United States

Public forecast

Using degrees Fahrenheit for public forecast. Weather courtesy of forecast.io.

Current aviation weather report (METAR) for San Antonio International Airport

Retrieved 2019/11/20 12:51 UTC (52 minutes ago):

KSAT 201251Z 15006KT 6SM -DZ BR OVC007 19/17 A2996 RMK AO2 RAE46DZB46 SLP131 P0000 T01890172

Aviation forecast (TAF) for San Antonio International Airport

Retrieved 2019/11/20 12:42 UTC (1 hour ago):

TAF KSAT 201139Z 2012/2118 14006KT 5SM BR OVC004 TEMPO 2012/2016 3SM -DZ BR OVC007 FM201600 16011KT P6SM OVC009 FM201700 16013KT P6SM BKN015 FM201800 16017KT P6SM BKN050 FM210300 15011KT P6SM OVC015